sensor_id;sensor_type;location;lat;lon;timestamp;temperature;humidity
58096;DHT22;43908;53.038;6.666;2022-10-30T00:01:49;12.10;99.90
58096;DHT22;43908;53.038;6.666;2022-10-30T00:04:15;12.10;99.90
58096;DHT22;43908;53.038;6.666;2022-10-30T00:06:40;12.10;99.90
58096;DHT22;43908;53.038;6.666;2022-10-30T00:09:06;12.10;99.90
58096;DHT22;43908;53.038;6.666;2022-10-30T00:11:31;12.10;99.90
58096;DHT22;43908;53.038;6.666;2022-10-30T00:13:57;12.00;99.90
58096;DHT22;43908;53.038;6.666;2022-10-30T00:16:22;12.00;99.90
58096;DHT22;43908;53.038;6.666;2022-10-30T00:18:48;12.00;99.90
58096;DHT22;43908;53.038;6.666;2022-10-30T00:21:13;12.00;99.90
58096;DHT22;43908;53.038;6.666;2022-10-30T00:23:49;12.00;99.90
58096;DHT22;43908;53.038;6.666;2022-10-30T00:26:15;12.00;99.90
58096;DHT22;43908;53.038;6.666;2022-10-30T00:28:40;12.00;99.90
58096;DHT22;43908;53.038;6.666;2022-10-30T00:31:06;12.00;99.90
58096;DHT22;43908;53.038;6.666;2022-10-30T00:33:32;12.00;99.90
58096;DHT22;43908;53.038;6.666;2022-10-30T00:35:57;12.00;99.90
58096;DHT22;43908;53.038;6.666;2022-10-30T00:38:23;12.00;99.90
58096;DHT22;43908;53.038;6.666;2022-10-30T00:40:48;12.00;99.90
58096;DHT22;43908;53.038;6.666;2022-10-30T00:43:27;12.00;99.90
58096;DHT22;43908;53.038;6.666;2022-10-30T00:45:53;12.00;99.90
58096;DHT22;43908;53.038;6.666;2022-10-30T00:48:20;12.00;99.90
58096;DHT22;43908;53.038;6.666;2022-10-30T00:50:48;11.90;99.90
58096;DHT22;43908;53.038;6.666;2022-10-30T00:53:15;11.90;99.90
58096;DHT22;43908;53.038;6.666;2022-10-30T00:55:46;11.90;99.90
58096;DHT22;43908;53.038;6.666;2022-10-30T00:58:14;11.90;99.90
58096;DHT22;43908;53.038;6.666;2022-10-30T01:00:41;11.90;99.90
58096;DHT22;43908;53.038;6.666;2022-10-30T01:03:07;11.80;99.90
58096;DHT22;43908;53.038;6.666;2022-10-30T01:05:33;11.80;99.90
58096;DHT22;43908;53.038;6.666;2022-10-30T01:07:59;11.80;99.90
58096;DHT22;43908;53.038;6.666;2022-10-30T01:10:25;11.80;99.90
58096;DHT22;43908;53.038;6.666;2022-10-30T01:12:51;11.70;99.90
58096;DHT22;43908;53.038;6.666;2022-10-30T01:15:18;11.70;99.90
58096;DHT22;43908;53.038;6.666;2022-10-30T01:18:02;11.70;99.90
58096;DHT22;43908;53.038;6.666;2022-10-30T01:20:38;11.70;99.90
58096;DHT22;43908;53.038;6.666;2022-10-30T01:25:47;11.60;99.90
58096;DHT22;43908;53.038;6.666;2022-10-30T01:28:19;11.60;99.90
58096;DHT22;43908;53.038;6.666;2022-10-30T01:33:33;11.60;99.90
58096;DHT22;43908;53.038;6.666;2022-10-30T01:36:05;11.60;99.90
58096;DHT22;43908;53.038;6.666;2022-10-30T01:38:35;11.60;99.90
58096;DHT22;43908;53.038;6.666;2022-10-30T01:41:03;11.60;99.90
58096;DHT22;43908;53.038;6.666;2022-10-30T01:43:29;11.60;99.90
58096;DHT22;43908;53.038;6.666;2022-10-30T01:48:37;11.60;99.90
58096;DHT22;43908;53.038;6.666;2022-10-30T01:54:00;11.60;99.90
58096;DHT22;43908;53.038;6.666;2022-10-30T01:56:32;11.60;99.90
58096;DHT22;43908;53.038;6.666;2022-10-30T02:01:32;11.60;99.90
58096;DHT22;43908;53.038;6.666;2022-10-30T02:04:00;11.60;99.90
58096;DHT22;43908;53.038;6.666;2022-10-30T02:06:25;11.60;99.90
58096;DHT22;43908;53.038;6.666;2022-10-30T02:08:53;11.50;99.90
58096;DHT22;43908;53.038;6.666;2022-10-30T02:11:19;11.50;99.90
58096;DHT22;43908;53.038;6.666;2022-10-30T02:13:45;11.50;99.90
58096;DHT22;43908;53.038;6.666;2022-10-30T02:16:10;11.50;99.90
58096;DHT22;43908;53.038;6.666;2022-10-30T02:18:36;11.50;99.90
58096;DHT22;43908;53.038;6.666;2022-10-30T02:21:02;11.50;99.90
58096;DHT22;43908;53.038;6.666;2022-10-30T02:23:27;11.50;99.90
58096;DHT22;43908;53.038;6.666;2022-10-30T02:25:53;11.50;99.90
58096;DHT22;43908;53.038;6.666;2022-10-30T02:28:18;11.50;99.90
58096;DHT22;43908;53.038;6.666;2022-10-30T02:30:44;11.50;99.90
58096;DHT22;43908;53.038;6.666;2022-10-30T02:33:09;11.50;99.90
58096;DHT22;43908;53.038;6.666;2022-10-30T02:35:35;11.40;99.90
58096;DHT22;43908;53.038;6.666;2022-10-30T02:38:01;11.40;99.90
58096;DHT22;43908;53.038;6.666;2022-10-30T02:40:26;11.40;99.90
58096;DHT22;43908;53.038;6.666;2022-10-30T02:42:52;11.40;99.90
58096;DHT22;43908;53.038;6.666;2022-10-30T02:45:17;11.40;99.90
58096;DHT22;43908;53.038;6.666;2022-10-30T02:47:43;11.40;99.90
58096;DHT22;43908;53.038;6.666;2022-10-30T02:50:08;11.40;99.90
58096;DHT22;43908;53.038;6.666;2022-10-30T02:52:34;11.40;99.90
58096;DHT22;43908;53.038;6.666;2022-10-30T02:54:59;11.40;99.90
58096;DHT22;43908;53.038;6.666;2022-10-30T02:57:25;11.40;99.90
58096;DHT22;43908;53.038;6.666;2022-10-30T02:59:50;11.40;99.90
58096;DHT22;43908;53.038;6.666;2022-10-30T03:02:16;11.30;99.90
58096;DHT22;43908;53.038;6.666;2022-10-30T03:04:41;11.30;99.90
58096;DHT22;43908;53.038;6.666;2022-10-30T03:07:07;11.30;99.90
58096;DHT22;43908;53.038;6.666;2022-10-30T03:09:32;11.30;99.90
58096;DHT22;43908;53.038;6.666;2022-10-30T03:11:57;11.30;99.90
58096;DHT22;43908;53.038;6.666;2022-10-30T03:14:23;11.30;99.90
58096;DHT22;43908;53.038;6.666;2022-10-30T03:16:48;11.20;99.90
58096;DHT22;43908;53.038;6.666;2022-10-30T03:19:17;11.20;99.90
58096;DHT22;43908;53.038;6.666;2022-10-30T03:21:42;11.20;99.90
58096;DHT22;43908;53.038;6.666;2022-10-30T03:24:08;11.20;99.90
58096;DHT22;43908;53.038;6.666;2022-10-30T03:26:33;11.20;99.90
58096;DHT22;43908;53.038;6.666;2022-10-30T03:28:59;11.10;99.90
58096;DHT22;43908;53.038;6.666;2022-10-30T03:31:24;11.10;99.90
58096;DHT22;43908;53.038;6.666;2022-10-30T03:33:50;11.10;99.90
58096;DHT22;43908;53.038;6.666;2022-10-30T03:36:15;11.10;99.90
58096;DHT22;43908;53.038;6.666;2022-10-30T03:38:41;11.10;99.90
58096;DHT22;43908;53.038;6.666;2022-10-30T03:41:06;11.10;99.90
58096;DHT22;43908;53.038;6.666;2022-10-30T03:43:32;11.10;99.90
58096;DHT22;43908;53.038;6.666;2022-10-30T03:45:57;11.10;99.90
58096;DHT22;43908;53.038;6.666;2022-10-30T03:48:24;11.10;99.90
58096;DHT22;43908;53.038;6.666;2022-10-30T03:50:53;11.10;99.90
58096;DHT22;43908;53.038;6.666;2022-10-30T03:53:19;11.00;99.90
58096;DHT22;43908;53.038;6.666;2022-10-30T03:55:45;11.10;99.90
58096;DHT22;43908;53.038;6.666;2022-10-30T03:58:10;11.00;99.90
58096;DHT22;43908;53.038;6.666;2022-10-30T04:00:35;11.00;99.90
58096;DHT22;43908;53.038;6.666;2022-10-30T04:03:04;11.10;99.90
58096;DHT22;43908;53.038;6.666;2022-10-30T04:05:30;11.10;99.90
58096;DHT22;43908;53.038;6.666;2022-10-30T04:07:56;11.10;99.90
58096;DHT22;43908;53.038;6.666;2022-10-30T04:10:22;11.10;99.90
58096;DHT22;43908;53.038;6.666;2022-10-30T04:12:47;11.10;99.90
58096;DHT22;43908;53.038;6.666;2022-10-30T04:15:13;11.10;99.90
58096;DHT22;43908;53.038;6.666;2022-10-30T04:17:38;11.10;99.90
58096;DHT22;43908;53.038;6.666;2022-10-30T04:20:04;11.10;99.90
58096;DHT22;43908;53.038;6.666;2022-10-30T04:22:29;11.10;99.90
58096;DHT22;43908;53.038;6.666;2022-10-30T04:24:55;11.10;99.90
58096;DHT22;43908;53.038;6.666;2022-10-30T04:27:20;11.10;99.90
58096;DHT22;43908;53.038;6.666;2022-10-30T04:29:46;11.10;99.90
58096;DHT22;43908;53.038;6.666;2022-10-30T04:32:11;11.10;99.90
58096;DHT22;43908;53.038;6.666;2022-10-30T04:34:37;11.10;99.90
58096;DHT22;43908;53.038;6.666;2022-10-30T04:37:04;11.00;99.90
58096;DHT22;43908;53.038;6.666;2022-10-30T04:39:29;11.00;99.90
58096;DHT22;43908;53.038;6.666;2022-10-30T04:41:55;10.90;99.90
58096;DHT22;43908;53.038;6.666;2022-10-30T04:44:20;10.90;99.90
58096;DHT22;43908;53.038;6.666;2022-10-30T04:46:46;10.90;99.90
58096;DHT22;43908;53.038;6.666;2022-10-30T04:49:11;10.80;99.90
58096;DHT22;43908;53.038;6.666;2022-10-30T04:51:37;10.90;99.90
58096;DHT22;43908;53.038;6.666;2022-10-30T04:54:02;10.80;99.90
58096;DHT22;43908;53.038;6.666;2022-10-30T04:56:28;10.80;99.90
58096;DHT22;43908;53.038;6.666;2022-10-30T04:58:53;10.80;99.90
58096;DHT22;43908;53.038;6.666;2022-10-30T05:01:19;10.80;99.90
58096;DHT22;43908;53.038;6.666;2022-10-30T05:03:44;10.80;99.90
58096;DHT22;43908;53.038;6.666;2022-10-30T05:06:18;10.80;99.90
58096;DHT22;43908;53.038;6.666;2022-10-30T05:08:45;10.70;99.90
58096;DHT22;43908;53.038;6.666;2022-10-30T05:11:11;10.80;99.90
58096;DHT22;43908;53.038;6.666;2022-10-30T05:13:36;10.70;99.90
58096;DHT22;43908;53.038;6.666;2022-10-30T05:16:02;10.70;99.90
58096;DHT22;43908;53.038;6.666;2022-10-30T05:18:27;10.70;99.90
58096;DHT22;43908;53.038;6.666;2022-10-30T05:20:53;10.70;99.90
58096;DHT22;43908;53.038;6.666;2022-10-30T05:23:18;10.70;99.90
58096;DHT22;43908;53.038;6.666;2022-10-30T05:25:44;10.70;99.90
58096;DHT22;43908;53.038;6.666;2022-10-30T05:28:09;10.70;99.90
58096;DHT22;43908;53.038;6.666;2022-10-30T05:30:35;10.70;99.90
58096;DHT22;43908;53.038;6.666;2022-10-30T05:33:01;10.60;99.90
58096;DHT22;43908;53.038;6.666;2022-10-30T05:35:27;10.70;99.90
58096;DHT22;43908;53.038;6.666;2022-10-30T05:37:53;10.60;99.90
58096;DHT22;43908;53.038;6.666;2022-10-30T05:40:18;10.60;99.90
58096;DHT22;43908;53.038;6.666;2022-10-30T05:42:47;10.60;99.90
58096;DHT22;43908;53.038;6.666;2022-10-30T05:45:13;10.60;99.90
58096;DHT22;43908;53.038;6.666;2022-10-30T05:47:39;10.60;99.90
58096;DHT22;43908;53.038;6.666;2022-10-30T05:50:04;10.60;99.90
58096;DHT22;43908;53.038;6.666;2022-10-30T05:52:30;10.60;99.90
58096;DHT22;43908;53.038;6.666;2022-10-30T05:54:56;10.60;99.90
58096;DHT22;43908;53.038;6.666;2022-10-30T05:57:21;10.60;99.90
58096;DHT22;43908;53.038;6.666;2022-10-30T05:59:46;10.60;99.90
58096;DHT22;43908;53.038;6.666;2022-10-30T06:02:12;10.60;99.90
58096;DHT22;43908;53.038;6.666;2022-10-30T06:04:38;10.50;99.90
58096;DHT22;43908;53.038;6.666;2022-10-30T06:07:03;10.50;99.90
58096;DHT22;43908;53.038;6.666;2022-10-30T06:09:29;10.60;99.90
58096;DHT22;43908;53.038;6.666;2022-10-30T06:11:54;10.50;99.90
58096;DHT22;43908;53.038;6.666;2022-10-30T06:14:20;10.50;99.90
58096;DHT22;43908;53.038;6.666;2022-10-30T06:16:45;10.50;99.90
58096;DHT22;43908;53.038;6.666;2022-10-30T06:19:11;10.50;99.90
58096;DHT22;43908;53.038;6.666;2022-10-30T06:21:36;10.50;99.90
58096;DHT22;43908;53.038;6.666;2022-10-30T06:24:02;10.50;99.90
58096;DHT22;43908;53.038;6.666;2022-10-30T06:26:27;10.50;99.90
58096;DHT22;43908;53.038;6.666;2022-10-30T06:28:52;10.40;99.90
58096;DHT22;43908;53.038;6.666;2022-10-30T06:31:18;10.50;99.90
58096;DHT22;43908;53.038;6.666;2022-10-30T06:33:43;10.50;99.90
58096;DHT22;43908;53.038;6.666;2022-10-30T06:36:09;10.50;99.90
58096;DHT22;43908;53.038;6.666;2022-10-30T06:38:34;10.50;99.90
58096;DHT22;43908;53.038;6.666;2022-10-30T06:41:00;10.50;99.90
58096;DHT22;43908;53.038;6.666;2022-10-30T06:43:25;10.50;99.90
58096;DHT22;43908;53.038;6.666;2022-10-30T06:45:51;10.50;99.90
58096;DHT22;43908;53.038;6.666;2022-10-30T06:48:16;10.50;99.90
58096;DHT22;43908;53.038;6.666;2022-10-30T06:50:43;10.50;99.90
58096;DHT22;43908;53.038;6.666;2022-10-30T06:53:08;10.60;99.90
58096;DHT22;43908;53.038;6.666;2022-10-30T06:55:34;10.60;99.90
58096;DHT22;43908;53.038;6.666;2022-10-30T06:57:59;10.60;99.90
58096;DHT22;43908;53.038;6.666;2022-10-30T07:00:25;10.70;99.90
58096;DHT22;43908;53.038;6.666;2022-10-30T07:02:57;10.70;99.90
58096;DHT22;43908;53.038;6.666;2022-10-30T07:05:23;10.70;99.90
58096;DHT22;43908;53.038;6.666;2022-10-30T07:07:48;10.80;99.90
58096;DHT22;43908;53.038;6.666;2022-10-30T07:10:14;10.80;99.90
58096;DHT22;43908;53.038;6.666;2022-10-30T07:12:39;10.80;99.90
58096;DHT22;43908;53.038;6.666;2022-10-30T07:15:05;10.90;99.90
58096;DHT22;43908;53.038;6.666;2022-10-30T07:17:30;10.90;99.90
58096;DHT22;43908;53.038;6.666;2022-10-30T07:19:56;10.90;99.90
58096;DHT22;43908;53.038;6.666;2022-10-30T07:22:21;11.00;99.90
58096;DHT22;43908;53.038;6.666;2022-10-30T07:24:47;11.10;99.90
58096;DHT22;43908;53.038;6.666;2022-10-30T07:27:12;11.10;99.90
58096;DHT22;43908;53.038;6.666;2022-10-30T07:29:38;11.10;99.90
58096;DHT22;43908;53.038;6.666;2022-10-30T07:32:03;11.20;99.90
58096;DHT22;43908;53.038;6.666;2022-10-30T07:34:29;11.30;99.90
58096;DHT22;43908;53.038;6.666;2022-10-30T07:36:54;11.30;99.90
58096;DHT22;43908;53.038;6.666;2022-10-30T07:39:20;11.40;99.90
58096;DHT22;43908;53.038;6.666;2022-10-30T07:41:47;11.40;99.90
58096;DHT22;43908;53.038;6.666;2022-10-30T07:44:12;11.50;99.90
58096;DHT22;43908;53.038;6.666;2022-10-30T07:46:38;11.50;99.90
58096;DHT22;43908;53.038;6.666;2022-10-30T07:49:03;11.60;99.90
58096;DHT22;43908;53.038;6.666;2022-10-30T07:51:29;11.60;99.90
58096;DHT22;43908;53.038;6.666;2022-10-30T07:53:54;11.70;99.90
58096;DHT22;43908;53.038;6.666;2022-10-30T07:56:20;11.80;99.90
58096;DHT22;43908;53.038;6.666;2022-10-30T07:58:45;11.90;99.90
58096;DHT22;43908;53.038;6.666;2022-10-30T08:01:11;12.00;99.90
58096;DHT22;43908;53.038;6.666;2022-10-30T08:03:36;12.00;99.90
58096;DHT22;43908;53.038;6.666;2022-10-30T08:06:01;12.10;99.90
58096;DHT22;43908;53.038;6.666;2022-10-30T08:08:27;12.20;99.90
58096;DHT22;43908;53.038;6.666;2022-10-30T08:10:52;12.30;99.90
58096;DHT22;43908;53.038;6.666;2022-10-30T08:13:18;12.40;99.90
58096;DHT22;43908;53.038;6.666;2022-10-30T08:15:43;12.40;99.90
58096;DHT22;43908;53.038;6.666;2022-10-30T08:18:09;12.50;99.90
58096;DHT22;43908;53.038;6.666;2022-10-30T08:20:34;12.60;99.90
58096;DHT22;43908;53.038;6.666;2022-10-30T08:23:00;12.70;99.90
58096;DHT22;43908;53.038;6.666;2022-10-30T08:25:26;12.80;99.90
58096;DHT22;43908;53.038;6.666;2022-10-30T08:28:03;12.90;99.90
58096;DHT22;43908;53.038;6.666;2022-10-30T08:30:30;13.00;99.90
58096;DHT22;43908;53.038;6.666;2022-10-30T08:32:59;13.10;99.90
58096;DHT22;43908;53.038;6.666;2022-10-30T08:35:25;13.20;99.90
58096;DHT22;43908;53.038;6.666;2022-10-30T08:37:54;13.30;99.90
58096;DHT22;43908;53.038;6.666;2022-10-30T08:40:20;13.40;99.90
58096;DHT22;43908;53.038;6.666;2022-10-30T08:42:49;13.40;99.90
58096;DHT22;43908;53.038;6.666;2022-10-30T08:45:14;13.50;99.90
58096;DHT22;43908;53.038;6.666;2022-10-30T08:47:40;13.60;99.90
58096;DHT22;43908;53.038;6.666;2022-10-30T08:50:05;13.70;99.90
58096;DHT22;43908;53.038;6.666;2022-10-30T08:52:31;13.70;99.90
58096;DHT22;43908;53.038;6.666;2022-10-30T08:54:56;13.80;99.90
58096;DHT22;43908;53.038;6.666;2022-10-30T08:57:22;13.80;99.90
58096;DHT22;43908;53.038;6.666;2022-10-30T08:59:47;13.90;99.90
58096;DHT22;43908;53.038;6.666;2022-10-30T09:02:13;14.00;99.90
58096;DHT22;43908;53.038;6.666;2022-10-30T09:04:38;14.10;99.90
58096;DHT22;43908;53.038;6.666;2022-10-30T09:07:04;14.10;99.90
58096;DHT22;43908;53.038;6.666;2022-10-30T09:09:29;14.20;99.90
58096;DHT22;43908;53.038;6.666;2022-10-30T09:11:54;14.20;99.90
58096;DHT22;43908;53.038;6.666;2022-10-30T09:14:20;14.30;99.90
58096;DHT22;43908;53.038;6.666;2022-10-30T09:16:45;14.40;99.90
58096;DHT22;43908;53.038;6.666;2022-10-30T09:19:11;14.40;99.90
58096;DHT22;43908;53.038;6.666;2022-10-30T09:21:36;14.50;99.90
58096;DHT22;43908;53.038;6.666;2022-10-30T09:24:02;14.60;99.90
58096;DHT22;43908;53.038;6.666;2022-10-30T09:26:27;14.60;99.90
58096;DHT22;43908;53.038;6.666;2022-10-30T09:28:53;14.60;99.90
58096;DHT22;43908;53.038;6.666;2022-10-30T09:31:19;14.70;99.90
58096;DHT22;43908;53.038;6.666;2022-10-30T09:33:44;14.80;99.90
58096;DHT22;43908;53.038;6.666;2022-10-30T09:36:09;14.80;99.90
58096;DHT22;43908;53.038;6.666;2022-10-30T09:38:35;14.90;99.90
58096;DHT22;43908;53.038;6.666;2022-10-30T09:48:39;15.20;99.90
58096;DHT22;43908;53.038;6.666;2022-10-30T09:53:43;15.40;99.90
58096;DHT22;43908;53.038;6.666;2022-10-30T09:56:18;15.50;99.90
58096;DHT22;43908;53.038;6.666;2022-10-30T09:58:52;15.50;99.90
58096;DHT22;43908;53.038;6.666;2022-10-30T10:06:19;15.90;99.90
58096;DHT22;43908;53.038;6.666;2022-10-30T10:08:46;16.10;99.90
58096;DHT22;43908;53.038;6.666;2022-10-30T10:11:15;16.20;99.90
58096;DHT22;43908;53.038;6.666;2022-10-30T10:13:42;16.40;99.90
58096;DHT22;43908;53.038;6.666;2022-10-30T10:16:12;16.50;99.90
58096;DHT22;43908;53.038;6.666;2022-10-30T10:18:45;16.70;99.90
58096;DHT22;43908;53.038;6.666;2022-10-30T10:21:17;16.70;99.90
58096;DHT22;43908;53.038;6.666;2022-10-30T10:23:46;16.90;99.90
58096;DHT22;43908;53.038;6.666;2022-10-30T10:26:25;16.90;99.90
58096;DHT22;43908;53.038;6.666;2022-10-30T10:31:45;17.10;99.90
58096;DHT22;43908;53.038;6.666;2022-10-30T10:34:20;17.10;99.90
58096;DHT22;43908;53.038;6.666;2022-10-30T10:37:04;17.30;99.90
58096;DHT22;43908;53.038;6.666;2022-10-30T10:42:14;17.40;99.90
58096;DHT22;43908;53.038;6.666;2022-10-30T10:52:56;17.70;99.90
58096;DHT22;43908;53.038;6.666;2022-10-30T10:55:21;17.70;99.90
58096;DHT22;43908;53.038;6.666;2022-10-30T10:57:47;17.80;99.90
58096;DHT22;43908;53.038;6.666;2022-10-30T11:00:20;17.80;99.90
58096;DHT22;43908;53.038;6.666;2022-10-30T11:07:58;17.80;99.90
58096;DHT22;43908;53.038;6.666;2022-10-30T11:10:25;17.80;99.90
58096;DHT22;43908;53.038;6.666;2022-10-30T11:12:50;17.90;99.90
58096;DHT22;43908;53.038;6.666;2022-10-30T11:15:32;18.00;99.90
58096;DHT22;43908;53.038;6.666;2022-10-30T11:18:06;18.00;99.90
58096;DHT22;43908;53.038;6.666;2022-10-30T11:20:50;18.10;99.90
58096;DHT22;43908;53.038;6.666;2022-10-30T11:26:03;18.20;99.90
58096;DHT22;43908;53.038;6.666;2022-10-30T11:28:37;18.20;99.90
58096;DHT22;43908;53.038;6.666;2022-10-30T11:33:43;18.30;99.90
58096;DHT22;43908;53.038;6.666;2022-10-30T11:36:08;18.30;99.90
58096;DHT22;43908;53.038;6.666;2022-10-30T11:38:34;18.40;99.90
58096;DHT22;43908;53.038;6.666;2022-10-30T11:41:00;18.40;99.90
58096;DHT22;43908;53.038;6.666;2022-10-30T11:43:26;18.40;99.90
58096;DHT22;43908;53.038;6.666;2022-10-30T11:45:51;18.50;99.90
58096;DHT22;43908;53.038;6.666;2022-10-30T11:48:28;18.60;99.90
58096;DHT22;43908;53.038;6.666;2022-10-30T11:50:58;18.60;99.90
58096;DHT22;43908;53.038;6.666;2022-10-30T11:53:28;18.60;99.90
58096;DHT22;43908;53.038;6.666;2022-10-30T11:55:55;18.60;99.90
58096;DHT22;43908;53.038;6.666;2022-10-30T11:58:31;18.60;99.90
58096;DHT22;43908;53.038;6.666;2022-10-30T12:00:59;18.60;99.90
58096;DHT22;43908;53.038;6.666;2022-10-30T12:03:26;18.70;99.90
58096;DHT22;43908;53.038;6.666;2022-10-30T12:05:52;18.80;99.90
58096;DHT22;43908;53.038;6.666;2022-10-30T12:08:30;18.90;99.90
58096;DHT22;43908;53.038;6.666;2022-10-30T12:10:57;19.00;99.90
58096;DHT22;43908;53.038;6.666;2022-10-30T12:13:23;19.10;99.90
58096;DHT22;43908;53.038;6.666;2022-10-30T12:16:02;19.10;99.90
58096;DHT22;43908;53.038;6.666;2022-10-30T12:18:28;19.10;99.90
58096;DHT22;43908;53.038;6.666;2022-10-30T12:20:56;19.10;99.90
58096;DHT22;43908;53.038;6.666;2022-10-30T12:23:23;19.10;99.90
58096;DHT22;43908;53.038;6.666;2022-10-30T12:25:53;19.00;99.90
58096;DHT22;43908;53.038;6.666;2022-10-30T12:30:52;18.90;99.90
58096;DHT22;43908;53.038;6.666;2022-10-30T12:35:54;18.90;99.90
58096;DHT22;43908;53.038;6.666;2022-10-30T12:38:29;18.80;99.90
58096;DHT22;43908;53.038;6.666;2022-10-30T12:40:58;18.90;99.90
58096;DHT22;43908;53.038;6.666;2022-10-30T12:43:25;18.90;99.90
58096;DHT22;43908;53.038;6.666;2022-10-30T12:45:52;18.90;99.90
58096;DHT22;43908;53.038;6.666;2022-10-30T12:55:52;18.90;99.90
58096;DHT22;43908;53.038;6.666;2022-10-30T12:58:20;18.90;99.90
58096;DHT22;43908;53.038;6.666;2022-10-30T13:00:55;18.90;99.90
58096;DHT22;43908;53.038;6.666;2022-10-30T13:03:28;18.90;99.90
58096;DHT22;43908;53.038;6.666;2022-10-30T13:05:56;18.90;99.90
58096;DHT22;43908;53.038;6.666;2022-10-30T13:10:57;19.00;99.90
58096;DHT22;43908;53.038;6.666;2022-10-30T13:13:27;19.00;99.90
58096;DHT22;43908;53.038;6.666;2022-10-30T13:15:54;19.00;99.90
58096;DHT22;43908;53.038;6.666;2022-10-30T13:18:22;19.10;99.90
58096;DHT22;43908;53.038;6.666;2022-10-30T13:23:26;19.10;99.90
58096;DHT22;43908;53.038;6.666;2022-10-30T13:33:37;19.20;99.90
58096;DHT22;43908;53.038;6.666;2022-10-30T13:38:36;19.30;99.90
58096;DHT22;43908;53.038;6.666;2022-10-30T13:41:05;19.20;99.90
58096;DHT22;43908;53.038;6.666;2022-10-30T13:53:17;19.10;99.90
58096;DHT22;43908;53.038;6.666;2022-10-30T13:55:45;19.10;99.90
58096;DHT22;43908;53.038;6.666;2022-10-30T14:03:29;19.00;99.90
58096;DHT22;43908;53.038;6.666;2022-10-30T14:11:18;18.90;99.90
58096;DHT22;43908;53.038;6.666;2022-10-30T14:13:45;18.90;99.90
58096;DHT22;43908;53.038;6.666;2022-10-30T14:19:01;18.90;99.90
58096;DHT22;43908;53.038;6.666;2022-10-30T14:21:43;18.80;99.90
58096;DHT22;43908;53.038;6.666;2022-10-30T14:24:10;18.80;99.90
58096;DHT22;43908;53.038;6.666;2022-10-30T14:26:36;18.70;99.90
58096;DHT22;43908;53.038;6.666;2022-10-30T14:29:28;18.70;99.90
58096;DHT22;43908;53.038;6.666;2022-10-30T14:31:47;18.70;99.90
58096;DHT22;43908;53.038;6.666;2022-10-30T14:34:39;18.60;99.90
58096;DHT22;43908;53.038;6.666;2022-10-30T14:37:01;18.60;99.90
58096;DHT22;43908;53.038;6.666;2022-10-30T14:39:27;18.60;99.90
58096;DHT22;43908;53.038;6.666;2022-10-30T14:44:42;18.50;99.90
58096;DHT22;43908;53.038;6.666;2022-10-30T14:52:41;18.40;99.90
58096;DHT22;43908;53.038;6.666;2022-10-30T14:57:53;18.40;99.90
58096;DHT22;43908;53.038;6.666;2022-10-30T15:03:41;18.30;99.90
58096;DHT22;43908;53.038;6.666;2022-10-30T15:05:51;18.30;99.90
58096;DHT22;43908;53.038;6.666;2022-10-30T15:13:31;18.00;99.90
58096;DHT22;43908;53.038;6.666;2022-10-30T15:15:57;17.90;99.90
58096;DHT22;43908;53.038;6.666;2022-10-30T15:18:23;17.90;99.90
58096;DHT22;43908;53.038;6.666;2022-10-30T15:20:49;17.80;99.90
58096;DHT22;43908;53.038;6.666;2022-10-30T15:25:51;17.60;99.90
58096;DHT22;43908;53.038;6.666;2022-10-30T15:28:18;17.40;99.90
58096;DHT22;43908;53.038;6.666;2022-10-30T15:31:04;17.30;99.90
58096;DHT22;43908;53.038;6.666;2022-10-30T15:33:29;17.30;99.90
58096;DHT22;43908;53.038;6.666;2022-10-30T15:35:59;17.10;99.90
58096;DHT22;43908;53.038;6.666;2022-10-30T15:38:25;17.00;99.90
58096;DHT22;43908;53.038;6.666;2022-10-30T15:40:54;17.00;99.90
58096;DHT22;43908;53.038;6.666;2022-10-30T15:43:21;16.90;99.90
58096;DHT22;43908;53.038;6.666;2022-10-30T15:45:48;16.80;99.90
58096;DHT22;43908;53.038;6.666;2022-10-30T15:50:52;16.50;99.90
58096;DHT22;43908;53.038;6.666;2022-10-30T15:53:19;16.40;99.90
58096;DHT22;43908;53.038;6.666;2022-10-30T15:55:46;16.40;99.90
58096;DHT22;43908;53.038;6.666;2022-10-30T15:58:14;16.30;99.90
58096;DHT22;43908;53.038;6.666;2022-10-30T16:00:41;16.20;99.90
58096;DHT22;43908;53.038;6.666;2022-10-30T16:03:15;16.20;99.90
58096;DHT22;43908;53.038;6.666;2022-10-30T16:05:41;16.10;99.90
58096;DHT22;43908;53.038;6.666;2022-10-30T16:08:13;16.00;99.90
58096;DHT22;43908;53.038;6.666;2022-10-30T16:10:39;16.00;99.90
58096;DHT22;43908;53.038;6.666;2022-10-30T16:13:05;15.90;99.90
58096;DHT22;43908;53.038;6.666;2022-10-30T16:15:37;15.90;99.90
58096;DHT22;43908;53.038;6.666;2022-10-30T16:20:28;15.80;99.90
58096;DHT22;43908;53.038;6.666;2022-10-30T16:22:54;15.70;99.90
58096;DHT22;43908;53.038;6.666;2022-10-30T16:25:19;15.60;99.90
58096;DHT22;43908;53.038;6.666;2022-10-30T16:27:45;15.60;99.90
58096;DHT22;43908;53.038;6.666;2022-10-30T16:30:14;15.50;99.90
58096;DHT22;43908;53.038;6.666;2022-10-30T16:32:40;15.50;99.90
58096;DHT22;43908;53.038;6.666;2022-10-30T16:35:07;15.40;99.90
58096;DHT22;43908;53.038;6.666;2022-10-30T16:37:35;15.40;99.90
58096;DHT22;43908;53.038;6.666;2022-10-30T16:40:04;15.30;99.90
58096;DHT22;43908;53.038;6.666;2022-10-30T16:42:30;15.20;99.90
58096;DHT22;43908;53.038;6.666;2022-10-30T16:47:39;15.10;99.90
58096;DHT22;43908;53.038;6.666;2022-10-30T16:50:06;15.00;99.90
58096;DHT22;43908;53.038;6.666;2022-10-30T16:52:35;15.00;99.90
58096;DHT22;43908;53.038;6.666;2022-10-30T16:55:03;14.90;99.90
58096;DHT22;43908;53.038;6.666;2022-10-30T16:57:30;14.90;99.90
58096;DHT22;43908;53.038;6.666;2022-10-30T16:59:56;14.90;99.90
58096;DHT22;43908;53.038;6.666;2022-10-30T17:02:24;14.80;99.90
58096;DHT22;43908;53.038;6.666;2022-10-30T17:04:51;14.80;99.90
58096;DHT22;43908;53.038;6.666;2022-10-30T17:07:18;14.70;99.90
58096;DHT22;43908;53.038;6.666;2022-10-30T17:09:45;14.70;99.90
58096;DHT22;43908;53.038;6.666;2022-10-30T17:12:13;14.70;99.90
58096;DHT22;43908;53.038;6.666;2022-10-30T17:17:26;14.70;99.90
58096;DHT22;43908;53.038;6.666;2022-10-30T17:20:13;14.70;99.90
58096;DHT22;43908;53.038;6.666;2022-10-30T17:22:41;14.60;99.90
58096;DHT22;43908;53.038;6.666;2022-10-30T17:25:17;14.60;99.90
58096;DHT22;43908;53.038;6.666;2022-10-30T17:30:30;14.50;99.90
58096;DHT22;43908;53.038;6.666;2022-10-30T17:32:58;14.50;99.90
58096;DHT22;43908;53.038;6.666;2022-10-30T17:35:24;14.50;99.90
58096;DHT22;43908;53.038;6.666;2022-10-30T17:37:49;14.50;99.90
58096;DHT22;43908;53.038;6.666;2022-10-30T17:40:18;14.40;99.90
58096;DHT22;43908;53.038;6.666;2022-10-30T17:42:44;14.40;99.90
58096;DHT22;43908;53.038;6.666;2022-10-30T17:45:13;14.40;99.90
58096;DHT22;43908;53.038;6.666;2022-10-30T17:47:38;14.40;99.90
58096;DHT22;43908;53.038;6.666;2022-10-30T17:50:04;14.40;99.90